This is the latest recevied weather packets stored in our database for station/object K3BAK-13. If no packets are shown the sender has not sent any weather packets the latest 10 day(s).
| Time | Temp. | Humidity | Pressure | Rain* | Wind** | Luminosity | Snow |
|---|---|---|---|---|---|---|---|
| 1777758361 | 6.11° C | 70% | 1016.2 hPa | 0 mm | - | - | - |
| 1777757468 | 6.11° C | 71% | 1016.1 hPa | 0 mm | - | - | - |
| 1777756859 | 6.11° C | 72% | 1016 hPa | 0 mm | - | - | - |
| 1777755959 | 6.11° C | 73% | 1015.9 hPa | 0 mm | - | - | - |
| 1777755359 | 6.67° C | 71% | 1015.9 hPa | 0 mm | - | - | - |
| 1777753558 | 6.11° C | 73% | 1015.9 hPa | 0 mm | - | - | - |
| 1777752957 | 6.67° C | 71% | 1015.9 hPa | 0 mm | - | - | - |
| 1777752097 | 5.56° C | 76% | 1016.2 hPa | 0 mm | - | - | - |
| 1777751758 | 5.56° C | 75% | 1016.1 hPa | 0 mm | - | - | - |
| 1777750559 | 6.11° C | 75% | 1016.1 hPa | 0 mm | - | - | - |
| 1777748758 | 6.67° C | 72% | 1016.4 hPa | 0 mm | - | - | - |
| 1777742758 | 5.56° C | 79% | 1016.4 hPa | 0 mm | - | - | - |
| 1777742460 | 5.56° C | 77% | 1016.4 hPa | 0 mm | - | - | - |
| 1777741559 | 6.11° C | 76% | 1016.3 hPa | 0 mm | - | - | - |
| 1777740368 | 6.67° C | 72% | 1016.2 hPa | 0 mm | - | - | - |
| 1777738566 | 6.67° C | 65% | 1016.1 hPa | 0 mm | - | - | - |
| 1777736458 | 6.67° C | 71% | 1016.1 hPa | 0 mm | - | - | - |
| 1777734090 | 6.67° C | 75% | 1015.8 hPa | 0 mm | - | - | - |
| 1777732558 | 6.11° C | 77% | 1015.8 hPa | 0 mm | - | - | - |
| 1777730468 | 5.56° C | 87% | 1016 hPa | 0 mm | - | - | - |
| 1777729859 | 5° C | 88% | 1016 hPa | 0 mm | - | - | - |
| 1777729258 | 5° C | 90% | 1016.1 hPa | 0 mm | - | - | - |
| 1777725661 | 3.33° C | 95% | 1016.3 hPa | 0.25 mm | - | - | - |
| 1777721159 | 2.22° C | 96% | 1016.6 hPa | 0 mm | - | - | - |
| 1777719958 | 2.22° C | 96% | 1016.4 hPa | 0 mm | - | - | - |
* Rain latest hour (hover to see other rain measurements)
** Current wind speed in m/s (hover to see current wind gust speed)